^^
Station Historical Data
Daily Summary for January 28, 2017 Units:  Both    English   Metric
« Previous Day
Next Day »
Daily Weekly Monthly Yearly Custom
  High: Low: Average:
Temperature: 88.3 °F /  31.3 °C 59.9 °F /  15.5 °C 73.8 °F /  23.2 °C
Dew Point: 61.0 °F /  16.1 °C 41.9 °F /  5.5 °C 49.7 °F /  9.8 °C
Humidity: 91% 22% 47%
Wind Speed: 12.1mph /  19.5km/h - 1.9mph /  3.1km/h
Wind Gust: 12.1mph /  19.5km/h - -
Wind- - SE
Pressure: 29.80 in /  1009 hPa 29.66 in /  1004.3 hPa -
Precipitation: 0.01 in /  0.25 mm    
Historical Graphs
 
 
Tabular Data for January 28, 2017
Time Temperature Dew Point Pressure Wind Wind Speed Wind Gust Humidity Rainfall Rate (Hourly) solar Conditions
00:02 63.7 °F /  17.6 °C 61.0 °F /  16.1 °C 29.77in /  1008hPa Calm     91% 0.00in /  0mm 0.0 W/m2
00:08 63.3 °F /  17.4 °C 60.6 °F /  15.9 °C 29.76in /  1007.7hPa Calm     91% 0.00in /  0mm 0.0 W/m2
00:14 63.3 °F /  17.4 °C 60.6 °F /  15.9 °C 29.76in /  1007.7hPa Calm     91% 0.00in /  0mm 0.0 W/m2
00:20 63.1 °F /  17.3 °C 60.4 °F /  15.8 °C 29.76in /  1007.7hPa ESE 2.0mph /  3.2km/h 3.0mph /  4.8km/h 91% 0.00in /  0mm 0.0 W/m2
00:26 63.0 °F /  17.2 °C 59.9 °F /  15.5 °C 29.76in /  1007.7hPa Calm   1.0mph /  1.6km/h 90% 0.00in /  0mm 0.0 W/m2
00:32 62.8 °F /  17.1 °C 59.5 °F /  15.3 °C 29.76in /  1007.7hPa Calm     89% 0.00in /  0mm 0.0 W/m2
00:38 62.4 °F /  16.9 °C 59.2 °F /  15.1 °C 29.77in /  1008hPa Calm   2.0mph /  3.2km/h 89% 0.00in /  0mm 0.0 W/m2
00:50 62.4 °F /  16.9 °C 58.5 °F /  14.7 °C 29.76in /  1007.7hPa Calm   2.0mph /  3.2km/h 87% 0.00in /  0mm 0.0 W/m2
00:56 62.4 °F /  16.9 °C 58.5 °F /  14.7 °C 29.76in /  1007.7hPa SE 2.0mph /  3.2km/h 3.0mph /  4.8km/h 87% 0.00in /  0mm 0.0 W/m2
01:02 62.4 °F /  16.9 °C 58.5 °F /  14.7 °C 29.76in /  1007.7hPa SE 2.0mph /  3.2km/h 4.0mph /  6.4km/h 87% 0.00in /  0mm 0.0 W/m2
01:08 62.6 °F /  17 °C 58.3 °F /  14.6 °C 29.76in /  1007.7hPa ESE 2.9mph /  4.7km/h 4.0mph /  6.4km/h 86% 0.00in /  0mm 0.0 W/m2
01:10 62.6 °F /  17 °C 58.3 °F /  14.6 °C 29.76in /  1007.7hPa SE 0.9mph /  1.4km/h 3.0mph /  4.8km/h 86% 0.00in /  0mm 0.0 W/m2
01:16 62.6 °F /  17 °C 58.1 °F /  14.5 °C 29.76in /  1007.7hPa ESE 2.9mph /  4.7km/h 4.0mph /  6.4km/h 85% 0.00in /  0mm 0.0 W/m2
01:22 62.8 °F /  17.1 °C 57.9 °F /  14.4 °C 29.76in /  1007.7hPa SE 2.0mph /  3.2km/h 3.0mph /  4.8km/h 84% 0.00in /  0mm 0.0 W/m2
01:28 62.8 °F /  17.1 °C 57.9 °F /  14.4 °C 29.76in /  1007.7hPa SE 2.0mph /  3.2km/h 4.0mph /  6.4km/h 84% 0.00in /  0mm 0.0 W/m2
01:30 62.8 °F /  17.1 °C 57.9 °F /  14.4 °C 29.76in /  1007.7hPa SE 2.9mph /  4.7km/h 4.0mph /  6.4km/h 84% 0.00in /  0mm 0.0 W/m2
01:36 62.6 °F /  17 °C 57.0 °F /  13.9 °C 29.75in /  1007.3hPa Calm   1.0mph /  1.6km/h 82% 0.00in /  0mm 0.0 W/m2
01:42 62.4 °F /  16.9 °C 56.8 °F /  13.8 °C 29.75in /  1007.3hPa East 2.0mph /  3.2km/h 3.0mph /  4.8km/h 82% 0.00in /  0mm 0.0 W/m2
01:48 62.4 °F /  16.9 °C 56.1 °F /  13.4 °C 29.75in /  1007.3hPa ESE 0.9mph /  1.4km/h 3.0mph /  4.8km/h 80% 0.01in /  0.25mm 0.0 W/m2
01:54 62.4 °F /  16.9 °C 55.8 °F /  13.2 °C 29.75in /  1007.3hPa SE 2.0mph /  3.2km/h 2.0mph /  3.2km/h 79% 0.01in /  0.25mm 0.0 W/m2
02:00 62.4 °F /  16.9 °C 55.8 °F /  13.2 °C 29.75in /  1007.3hPa Calm   3.0mph /  4.8km/h 79% 0.01in /  0.25mm 0.0 W/m2
02:06 62.2 °F /  16.8 °C 55.6 °F /  13.1 °C 29.75in /  1007.3hPa Calm   3.0mph /  4.8km/h 79% 0.01in /  0.25mm 0.0 W/m2
02:12 62.1 °F /  16.7 °C 55.0 °F /  12.8 °C 29.75in /  1007.3hPa SE 0.9mph /  1.4km/h 4.0mph /  6.4km/h 78% 0.01in /  0.25mm 0.0 W/m2
02:18 62.1 °F /  16.7 °C 54.7 °F /  12.6 °C 29.75in /  1007.3hPa ESE 0.9mph /  1.4km/h 4.0mph /  6.4km/h 77% 0.01in /  0.25mm 0.0 W/m2
02:24 61.9 °F /  16.6 °C 53.8 °F /  12.1 °C 29.75in /  1007.3hPa SE 2.0mph /  3.2km/h 3.0mph /  4.8km/h 75% 0.01in /  0.25mm 0.0 W/m2
02:30 61.9 °F /  16.6 °C 53.4 °F /  11.9 °C 29.75in /  1007.3hPa SE 0.9mph /  1.4km/h 4.0mph /  6.4km/h 74% 0.01in /  0.25mm 0.0 W/m2
02:36 61.9 °F /  16.6 °C 53.8 °F /  12.1 °C 29.75in /  1007.3hPa SE 2.0mph /  3.2km/h 2.0mph /  3.2km/h 75% 0.01in /  0.25mm 0.0 W/m2
02:42 61.9 °F /  16.6 °C 53.8 °F /  12.1 °C 29.75in /  1007.3hPa Calm   2.0mph /  3.2km/h 75% 0.00in /  0mm 0.0 W/m2
02:48 61.5 °F /  16.4 °C 53.2 °F /  11.8 °C 29.75in /  1007.3hPa ESE 0.9mph /  1.4km/h 3.0mph /  4.8km/h 74% 0.00in /  0mm 0.0 W/m2
02:54 61.3 °F /  16.3 °C 53.1 °F /  11.7 °C 29.74in /  1007hPa SE 2.9mph /  4.7km/h 4.0mph /  6.4km/h 74% 0.00in /  0mm 0.0 W/m2
03:00 61.3 °F /  16.3 °C 52.7 °F /  11.5 °C 29.74in /  1007hPa Calm   2.0mph /  3.2km/h 73% 0.00in /  0mm 0.0 W/m2
03:06 61.3 °F /  16.3 °C 51.8 °F /  11 °C 29.74in /  1007hPa SE 0.9mph /  1.4km/h 2.0mph /  3.2km/h 71% 0.00in /  0mm 0.0 W/m2
03:12 61.3 °F /  16.3 °C 51.4 °F /  10.8 °C 29.74in /  1007hPa Calm   3.0mph /  4.8km/h 70% 0.00in /  0mm 0.0 W/m2
03:18 61.5 °F /  16.4 °C 51.6 °F /  10.9 °C 29.74in /  1007hPa SE 4.0mph /  6.4km/h 4.0mph /  6.4km/h 70% 0.00in /  0mm 0.0 W/m2
03:24 61.7 °F /  16.5 °C 51.4 °F /  10.8 °C 29.73in /  1006.7hPa SE 0.9mph /  1.4km/h 2.0mph /  3.2km/h 69% 0.00in /  0mm 0.0 W/m2
03:31 61.7 °F /  16.5 °C 51.4 °F /  10.8 °C 29.74in /  1007hPa SE 2.9mph /  4.7km/h 4.0mph /  6.4km/h 69% 0.00in /  0mm 0.0 W/m2
03:36 61.7 °F /  16.5 °C 50.2 °F /  10.1 °C 29.74in /  1007hPa SSE 2.9mph /  4.7km/h 6.0mph /  9.7km/h 66% 0.00in /  0mm 0.0 W/m2
03:42 62.1 °F /  16.7 °C 48.9 °F /  9.4 °C 29.74in /  1007hPa SSE 4.9mph /  7.9km/h 8.0mph /  12.9km/h 62% 0.00in /  0mm 0.0 W/m2
03:48 62.8 °F /  17.1 °C 48.7 °F /  9.3 °C 29.74in /  1007hPa ESE 2.9mph /  4.7km/h 7.0mph /  11.3km/h 60% 0.00in /  0mm 0.0 W/m2
03:54 63.1 °F /  17.3 °C 48.2 °F /  9 °C 29.74in /  1007hPa SSE 4.0mph /  6.4km/h 7.0mph /  11.3km/h 58% 0.00in /  0mm 0.0 W/m2
04:00 63.7 °F /  17.6 °C 47.7 °F /  8.7 °C 29.74in /  1007hPa SE 4.0mph /  6.4km/h 9.0mph /  14.5km/h 56% 0.00in /  0mm 0.0 W/m2
04:06 63.9 °F /  17.7 °C 47.3 °F /  8.5 °C 29.74in /  1007hPa SSE 4.0mph /  6.4km/h 8.0mph /  12.9km/h 55% 0.00in /  0mm 0.0 W/m2
04:12 63.9 °F /  17.7 °C 47.3 °F /  8.5 °C 29.74in /  1007hPa ESE 6.9mph /  11.1km/h 9.0mph /  14.5km/h 55% 0.00in /  0mm 0.0 W/m2
04:18 63.9 °F /  17.7 °C 47.3 °F /  8.5 °C 29.74in /  1007hPa ESE 6.0mph /  9.7km/h 7.0mph /  11.3km/h 55% 0.00in /  0mm 0.0 W/m2
04:24 63.9 °F /  17.7 °C 47.3 °F /  8.5 °C 29.74in /  1007hPa SSE 4.9mph /  7.9km/h 7.0mph /  11.3km/h 55% 0.00in /  0mm 0.0 W/m2
04:30 63.7 °F /  17.6 °C 47.3 °F /  8.5 °C 29.74in /  1007hPa SSE 4.0mph /  6.4km/h 5.0mph /  8km/h 55% 0.00in /  0mm 0.0 W/m2
04:36 63.5 °F /  17.5 °C 45.5 °F /  7.5 °C 29.75in /  1007.3hPa SE 6.9mph /  11.1km/h 8.0mph /  12.9km/h 52% 0.00in /  0mm 0.0 W/m2
04:42 63.3 °F /  17.4 °C 45.9 °F /  7.7 °C 29.75in /  1007.3hPa SE 4.9mph /  7.9km/h 7.0mph /  11.3km/h 53% 0.00in /  0mm 0.0 W/m2
04:48 63.3 °F /  17.4 °C 45.3 °F /  7.4 °C 29.75in /  1007.3hPa ESE 4.0mph /  6.4km/h 6.0mph /  9.7km/h 52% 0.00in /  0mm 0.0 W/m2
04:54 63.3 °F /  17.4 °C 45.0 °F /  7.2 °C 29.75in /  1007.3hPa South 2.9mph /  4.7km/h 10.0mph /  16.1km/h 51% 0.00in /  0mm 0.0 W/m2
05:00 63.5 °F /  17.5 °C 45.0 °F /  7.2 °C 29.74in /  1007hPa SSE 10.1mph /  16.3km/h 11.0mph /  17.7km/h 51% 0.00in /  0mm 0.0 W/m2
05:06 63.3 °F /  17.4 °C 45.3 °F /  7.4 °C 29.74in /  1007hPa SE 6.0mph /  9.7km/h 7.0mph /  11.3km/h 52% 0.00in /  0mm 0.0 W/m2
05:16 63.1 °F /  17.3 °C 44.2 °F /  6.8 °C 29.75in /  1007.3hPa SE 6.0mph /  9.7km/h 12.0mph /  19.3km/h 50% 0.00in /  0mm 0.0 W/m2
05:26 63.1 °F /  17.3 °C 42.1 °F /  5.6 °C 29.75in /  1007.3hPa SSE 6.0mph /  9.7km/h 11.0mph /  17.7km/h 46% 0.00in /  0mm 0.0 W/m2
05:30 63.1 °F /  17.3 °C 42.6 °F /  5.9 °C 29.75in /  1007.3hPa SE 12.1mph /  19.5km/h 12.1mph /  19.5km/h 47% 0.00in /  0mm 0.0 W/m2
05:36 63.0 °F /  17.2 °C 42.4 °F /  5.8 °C 29.75in /  1007.3hPa SSE 4.9mph /  7.9km/h 7.0mph /  11.3km/h 47% 0.00in /  0mm 0.0 W/m2
05:42 62.6 °F /  17 °C 42.1 °F /  5.6 °C 29.75in /  1007.3hPa SE 6.9mph /  11.1km/h 10.0mph /  16.1km/h 47% 0.00in /  0mm 0.0 W/m2
05:48 62.4 °F /  16.9 °C 42.4 °F /  5.8 °C 29.76in /  1007.7hPa SE 8.1mph /  13km/h 12.0mph /  19.3km/h 48% 0.00in /  0mm 0.0 W/m2
05:54 62.4 °F /  16.9 °C 41.9 °F /  5.5 °C 29.77in /  1008hPa SE 6.9mph /  11.1km/h 8.0mph /  12.9km/h 47% 0.00in /  0mm 0.0 W/m2
06:00 62.2 °F /  16.8 °C 42.3 °F /  5.7 °C 29.77in /  1008hPa Calm   12.0mph /  19.3km/h 48% 0.00in /  0mm 0.0 W/m2
06:07 62.1 °F /  16.7 °C 42.1 °F /  5.6 °C 29.76in /  1007.7hPa SSE 8.1mph /  13km/h 8.1mph /  13km/h 48% 0.00in /  0mm 0.0 W/m2
06:12 62.1 °F /  16.7 °C 42.6 °F /  5.9 °C 29.77in /  1008hPa SSE 2.0mph /  3.2km/h 4.0mph /  6.4km/h 49% 0.00in /  0mm 0.0 W/m2
06:18 61.9 °F /  16.6 °C 43.0 °F /  6.1 °C 29.77in /  1008hPa SE 0.9mph /  1.4km/h 3.0mph /  4.8km/h 50% 0.00in /  0mm 0.0 W/m2
06:24 61.5 °F /  16.4 °C 43.7 °F /  6.5 °C 29.77in /  1008hPa Calm   1.0mph /  1.6km/h 52% 0.00in /  0mm 0.0 W/m2
06:30 61.3 °F /  16.3 °C 44.6 °F /  7 °C 29.77in /  1008hPa Calm   2.0mph /  3.2km/h 54% 0.00in /  0mm 0.0 W/m2
06:37 61.0 °F /  16.1 °C 45.1 °F /  7.3 °C 29.77in /  1008hPa Calm   2.0mph /  3.2km/h 56% 0.00in /  0mm 5.0 W/m2
06:43 60.8 °F /  16 °C 45.9 °F /  7.7 °C 29.77in /  1008hPa Calm     58% 0.00in /  0mm 11.0 W/m2
06:49 60.4 °F /  15.8 °C 46.4 °F /  8 °C 29.77in /  1008hPa NNE 0.9mph /  1.4km/h 2.0mph /  3.2km/h 60% 0.00in /  0mm 19.0 W/m2
06:55 60.3 °F /  15.7 °C 47.1 °F /  8.4 °C 29.78in /  1008.4hPa Calm     62% 0.00in /  0mm 28.0 W/m2
07:01 60.1 °F /  15.6 °C 46.9 °F /  8.3 °C 29.78in /  1008.4hPa Calm     62% 0.00in /  0mm 35.0 W/m2
07:07 59.9 °F /  15.5 °C 46.4 °F /  8 °C 29.78in /  1008.4hPa Calm   1.0mph /  1.6km/h 61% 0.00in /  0mm 44.0 W/m2
07:13 59.9 °F /  15.5 °C 46.4 °F /  8 °C 29.78in /  1008.4hPa Calm   2.0mph /  3.2km/h 61% 0.00in /  0mm 51.0 W/m2
07:19 60.1 °F /  15.6 °C 46.9 °F /  8.3 °C 29.78in /  1008.4hPa Calm   1.0mph /  1.6km/h 62% 0.00in /  0mm 56.0 W/m2
07:25 60.1 °F /  15.6 °C 46.9 °F /  8.3 °C 29.78in /  1008.4hPa Calm   1.0mph /  1.6km/h 62% 0.00in /  0mm 63.0 W/m2
07:31 60.3 °F /  15.7 °C 48.4 °F /  9.1 °C 29.79in /  1008.7hPa Calm     65% 0.00in /  0mm 69.0 W/m2
07:37 60.4 °F /  15.8 °C 48.6 °F /  9.2 °C 29.79in /  1008.7hPa Calm   1.0mph /  1.6km/h 65% 0.00in /  0mm 76.0 W/m2
07:44 60.6 °F /  15.9 °C 48.7 °F /  9.3 °C 29.78in /  1008.4hPa Calm   1.0mph /  1.6km/h 65% 0.00in /  0mm 178.0 W/m2
07:50 61.0 °F /  16.1 °C 49.1 °F /  9.5 °C 29.78in /  1008.4hPa Calm     65% 0.00in /  0mm 142.0 W/m2
07:56 61.3 °F /  16.3 °C 48.6 °F /  9.2 °C 29.78in /  1008.4hPa Calm   5.0mph /  8km/h 63% 0.00in /  0mm 104.0 W/m2
08:02 62.2 °F /  16.8 °C 47.3 °F /  8.5 °C 29.78in /  1008.4hPa ESE 4.0mph /  6.4km/h 5.0mph /  8km/h 58% 0.00in /  0mm 144.0 W/m2
08:08 63.7 °F /  17.6 °C 47.7 °F /  8.7 °C 29.79in /  1008.7hPa East 2.0mph /  3.2km/h 9.0mph /  14.5km/h 56% 0.00in /  0mm 153.0 W/m2
08:14 64.8 °F /  18.2 °C 47.3 °F /  8.5 °C 29.79in /  1008.7hPa SE 4.0mph /  6.4km/h 10.0mph /  16.1km/h 53% 0.00in /  0mm 283.0 W/m2
08:20 65.7 °F /  18.7 °C 47.5 °F /  8.6 °C 29.79in /  1008.7hPa East 2.9mph /  4.7km/h 9.0mph /  14.5km/h 52% 0.00in /  0mm 330.0 W/m2
08:26 66.6 °F /  19.2 °C 48.4 °F /  9.1 °C 29.79in /  1008.7hPa ESE 6.0mph /  9.7km/h 7.0mph /  11.3km/h 52% 0.00in /  0mm 250.0 W/m2
08:32 67.3 °F /  19.6 °C 48.0 °F /  8.9 °C 29.79in /  1008.7hPa SE 2.9mph /  4.7km/h 5.0mph /  8km/h 50% 0.00in /  0mm 239.0 W/m2
08:38 67.6 °F /  19.8 °C 49.5 °F /  9.7 °C 29.79in /  1008.7hPa ENE 0.9mph /  1.4km/h 2.0mph /  3.2km/h 52% 0.00in /  0mm 218.0 W/m2
08:44 68.0 °F /  20 °C 49.6 °F /  9.8 °C 29.79in /  1008.7hPa NNW 0.9mph /  1.4km/h 2.0mph /  3.2km/h 52% 0.00in /  0mm 258.0 W/m2
08:50 68.7 °F /  20.4 °C 49.8 °F /  9.9 °C 29.79in /  1008.7hPa NE 2.0mph /  3.2km/h 5.0mph /  8km/h 51% 0.00in /  0mm 468.0 W/m2
08:57 69.6 °F /  20.9 °C 49.6 °F /  9.8 °C 29.79in /  1008.7hPa NE 0.9mph /  1.4km/h 7.0mph /  11.3km/h 49% 0.00in /  0mm 519.0 W/m2
09:03 70.5 °F /  21.4 °C 49.8 °F /  9.9 °C 29.79in /  1008.7hPa Calm   4.0mph /  6.4km/h 48% 0.00in /  0mm 571.0 W/m2
09:09 71.2 °F /  21.8 °C 51.1 °F /  10.6 °C 29.80in /  1009hPa SE 6.0mph /  9.7km/h 7.0mph /  11.3km/h 49% 0.00in /  0mm 599.0 W/m2
09:15 71.8 °F /  22.1 °C 50.5 °F /  10.3 °C 29.79in /  1008.7hPa Calm   5.0mph /  8km/h 47% 0.00in /  0mm 622.0 W/m2
09:21 72.1 °F /  22.3 °C 50.7 °F /  10.4 °C 29.79in /  1008.7hPa SSE 2.9mph /  4.7km/h 6.0mph /  9.7km/h 47% 0.00in /  0mm 663.0 W/m2
09:27 72.7 °F /  22.6 °C 52.3 °F /  11.3 °C 29.79in /  1008.7hPa SE 0.9mph /  1.4km/h 7.0mph /  11.3km/h 49% 0.00in /  0mm 582.0 W/m2
09:33 73.0 °F /  22.8 °C 51.1 °F /  10.6 °C 29.80in /  1009hPa ENE 4.9mph /  7.9km/h 5.0mph /  8km/h 46% 0.00in /  0mm 578.0 W/m2
09:39 73.6 °F /  23.1 °C 53.8 °F /  12.1 °C 29.79in /  1008.7hPa ENE 6.0mph /  9.7km/h 8.0mph /  12.9km/h 50% 0.00in /  0mm 545.0 W/m2
09:45 73.8 °F /  23.2 °C 52.9 °F /  11.6 °C 29.80in /  1009hPa NNE 2.9mph /  4.7km/h 6.0mph /  9.7km/h 48% 0.00in /  0mm 515.0 W/m2
09:51 73.6 °F /  23.1 °C 52.7 °F /  11.5 °C 29.80in /  1009hPa NE 2.9mph /  4.7km/h 8.0mph /  12.9km/h 48% 0.00in /  0mm 577.0 W/m2
09:57 73.8 °F /  23.2 °C 52.9 °F /  11.6 °C 29.80in /  1009hPa ENE 6.9mph /  11.1km/h 7.0mph /  11.3km/h 48% 0.00in /  0mm 524.0 W/m2
10:04 73.8 °F /  23.2 °C 52.3 °F /  11.3 °C 29.80in /  1009hPa NNE 0.9mph /  1.4km/h 8.0mph /  12.9km/h 47% 0.00in /  0mm 605.0 W/m2
10:10 73.8 °F /  23.2 °C 52.3 °F /  11.3 °C 29.80in /  1009hPa NE 6.9mph /  11.1km/h 9.0mph /  14.5km/h 47% 0.00in /  0mm 432.0 W/m2
10:16 73.6 °F /  23.1 °C 53.2 °F /  11.8 °C 29.80in /  1009hPa East 0.9mph /  1.4km/h 3.0mph /  4.8km/h 49% 0.00in /  0mm 673.0 W/m2
10:22 73.9 °F /  23.3 °C 53.6 °F /  12 °C 29.80in /  1009hPa NE 2.9mph /  4.7km/h 8.0mph /  12.9km/h 49% 0.00in /  0mm 656.0 W/m2
10:28 74.5 °F /  23.6 °C 53.4 °F /  11.9 °C 29.80in /  1009hPa ENE 0.9mph /  1.4km/h 8.0mph /  12.9km/h 48% 0.00in /  0mm 749.0 W/m2
10:34 74.7 °F /  23.7 °C 53.1 °F /  11.7 °C 29.80in /  1009hPa ENE 2.9mph /  4.7km/h 8.0mph /  12.9km/h 47% 0.00in /  0mm 726.0 W/m2
10:41 75.0 °F /  23.9 °C 53.4 °F /  11.9 °C 29.80in /  1009hPa NE 2.0mph /  3.2km/h 4.0mph /  6.4km/h 47% 0.00in /  0mm 768.0 W/m2
10:47 75.7 °F /  24.3 °C 53.4 °F /  11.9 °C 29.80in /  1009hPa NNE 2.9mph /  4.7km/h 11.0mph /  17.7km/h 46% 0.00in /  0mm 853.0 W/m2
10:53 76.3 °F /  24.6 °C 53.4 °F /  11.9 °C 29.80in /  1009hPa East 2.9mph /  4.7km/h 5.0mph /  8km/h 45% 0.00in /  0mm 782.0 W/m2
10:59 76.6 °F /  24.8 °C 53.1 °F /  11.7 °C 29.79in /  1008.7hPa NE 2.9mph /  4.7km/h 4.0mph /  6.4km/h 44% 0.00in /  0mm 896.0 W/m2
11:05 77.4 °F /  25.2 °C 53.8 °F /  12.1 °C 29.79in /  1008.7hPa NNE 2.9mph /  4.7km/h 4.0mph /  6.4km/h 44% 0.00in /  0mm 947.0 W/m2
11:11 78.1 °F /  25.6 °C 53.1 °F /  11.7 °C 29.79in /  1008.7hPa SE 4.9mph /  7.9km/h 7.0mph /  11.3km/h 42% 0.00in /  0mm 933.0 W/m2
11:17 78.4 °F /  25.8 °C 53.4 °F /  11.9 °C 29.79in /  1008.7hPa North 2.0mph /  3.2km/h 10.0mph /  16.1km/h 42% 0.00in /  0mm 983.0 W/m2
11:23 78.8 °F /  26 °C 53.1 °F /  11.7 °C 29.78in /  1008.4hPa NNE 4.0mph /  6.4km/h 6.0mph /  9.7km/h 41% 0.00in /  0mm 1005.0 W/m2
11:29 79.3 °F /  26.3 °C 52.9 °F /  11.6 °C 29.78in /  1008.4hPa ENE 4.9mph /  7.9km/h 8.0mph /  12.9km/h 40% 0.00in /  0mm 1009.0 W/m2
11:35 79.9 °F /  26.6 °C 52.7 °F /  11.5 °C 29.79in /  1008.7hPa ESE 4.9mph /  7.9km/h 5.0mph /  8km/h 39% 0.00in /  0mm 1004.0 W/m2
11:41 80.1 °F /  26.7 °C 52.9 °F /  11.6 °C 29.79in /  1008.7hPa ESE 4.9mph /  7.9km/h 5.0mph /  8km/h 39% 0.00in /  0mm 1037.0 W/m2
11:48 80.4 °F /  26.9 °C 51.8 °F /  11 °C 29.78in /  1008.4hPa NE 8.1mph /  13km/h 9.0mph /  14.5km/h 37% 0.00in /  0mm 1046.0 W/m2
11:54 80.4 °F /  26.9 °C 50.2 °F /  10.1 °C 29.78in /  1008.4hPa Calm   4.0mph /  6.4km/h 35% 0.00in /  0mm 1049.0 W/m2
12:00 80.8 °F /  27.1 °C 49.8 °F /  9.9 °C 29.78in /  1008.4hPa NE 4.0mph /  6.4km/h 5.0mph /  8km/h 34% 0.00in /  0mm 969.0 W/m2
12:06 81.1 °F /  27.3 °C 50.2 °F /  10.1 °C 29.78in /  1008.4hPa Calm   6.0mph /  9.7km/h 34% 0.00in /  0mm 1009.0 W/m2
12:12 81.3 °F /  27.4 °C 48.6 °F /  9.2 °C 29.78in /  1008.4hPa NNW 0.9mph /  1.4km/h 3.0mph /  4.8km/h 32% 0.00in /  0mm 1004.0 W/m2
12:18 81.5 °F /  27.5 °C 50.4 °F /  10.2 °C 29.78in /  1008.4hPa Calm   3.0mph /  4.8km/h 34% 0.00in /  0mm 1030.0 W/m2
12:24 81.7 °F /  27.6 °C 49.8 °F /  9.9 °C 29.78in /  1008.4hPa Calm   6.0mph /  9.7km/h 33% 0.00in /  0mm 1076.0 W/m2
12:30 82.2 °F /  27.9 °C 49.5 °F /  9.7 °C 29.78in /  1008.4hPa ESE 2.0mph /  3.2km/h 7.0mph /  11.3km/h 32% 0.00in /  0mm 1079.0 W/m2
12:37 82.6 °F /  28.1 °C 49.8 °F /  9.9 °C 29.78in /  1008.4hPa Calm   6.0mph /  9.7km/h 32% 0.00in /  0mm 1078.0 W/m2
12:43 82.6 °F /  28.1 °C 49.8 °F /  9.9 °C 29.77in /  1008hPa North 4.9mph /  7.9km/h 5.0mph /  8km/h 32% 0.00in /  0mm 1097.0 W/m2
12:49 83.1 °F /  28.4 °C 49.3 °F /  9.6 °C 29.78in /  1008.4hPa NE 0.9mph /  1.4km/h 4.0mph /  6.4km/h 31% 0.00in /  0mm 1086.0 W/m2
12:55 83.8 °F /  28.8 °C 49.1 °F /  9.5 °C 29.78in /  1008.4hPa NE 2.0mph /  3.2km/h 6.0mph /  9.7km/h 30% 0.00in /  0mm 1088.0 W/m2
13:01 84.0 °F /  28.9 °C 49.3 °F /  9.6 °C 29.77in /  1008hPa SE 2.9mph /  4.7km/h 6.0mph /  9.7km/h 30% 0.00in /  0mm 1088.0 W/m2
13:07 83.5 °F /  28.6 °C 47.8 °F /  8.8 °C 29.77in /  1008hPa Calm   2.0mph /  3.2km/h 29% 0.00in /  0mm 1092.0 W/m2
13:13 83.7 °F /  28.7 °C 48.9 °F /  9.4 °C 29.77in /  1008hPa North 0.9mph /  1.4km/h 4.0mph /  6.4km/h 30% 0.00in /  0mm 1092.0 W/m2
13:20 84.4 °F /  29.1 °C 48.7 °F /  9.3 °C 29.77in /  1008hPa SE 2.9mph /  4.7km/h 4.0mph /  6.4km/h 29% 0.00in /  0mm 1099.0 W/m2
13:26 84.6 °F /  29.2 °C 47.8 °F /  8.8 °C 29.77in /  1008hPa ENE 2.9mph /  4.7km/h 5.0mph /  8km/h 28% 0.00in /  0mm 1123.0 W/m2
13:32 84.7 °F /  29.3 °C 47.1 °F /  8.4 °C 29.76in /  1007.7hPa Calm   6.0mph /  9.7km/h 27% 0.00in /  0mm 1078.0 W/m2
13:38 85.3 °F /  29.6 °C 48.6 °F /  9.2 °C 29.76in /  1007.7hPa North 2.0mph /  3.2km/h 7.0mph /  11.3km/h 28% 0.00in /  0mm 1164.0 W/m2
13:44 85.6 °F /  29.8 °C 51.6 °F /  10.9 °C 29.76in /  1007.7hPa NNE 0.9mph /  1.4km/h 3.0mph /  4.8km/h 31% 0.00in /  0mm 1172.0 W/m2
13:50 86.2 °F /  30.1 °C 49.3 °F /  9.6 °C 29.76in /  1007.7hPa ENE 4.0mph /  6.4km/h 7.0mph /  11.3km/h 28% 0.00in /  0mm 1132.0 W/m2
13:56 86.2 °F /  30.1 °C 48.2 °F /  9 °C 29.75in /  1007.3hPa Calm   1.0mph /  1.6km/h 27% 0.00in /  0mm 1111.0 W/m2
14:02 85.8 °F /  29.9 °C 48.0 °F /  8.9 °C 29.75in /  1007.3hPa SSE 4.0mph /  6.4km/h 4.0mph /  6.4km/h 27% 0.00in /  0mm 1120.0 W/m2
14:09 86.0 °F /  30 °C 48.2 °F /  9 °C 29.75in /  1007.3hPa SW 0.9mph /  1.4km/h 3.0mph /  4.8km/h 27% 0.00in /  0mm 174.0 W/m2
14:15 84.7 °F /  29.3 °C 49.8 °F /  9.9 °C 29.75in /  1007.3hPa ENE 4.0mph /  6.4km/h 5.0mph /  8km/h 30% 0.00in /  0mm 831.0 W/m2
14:21 84.6 °F /  29.2 °C 48.7 °F /  9.3 °C 29.74in /  1007hPa Calm   2.0mph /  3.2km/h 29% 0.00in /  0mm 1090.0 W/m2
14:27 84.4 °F /  29.1 °C 48.7 °F /  9.3 °C 29.74in /  1007hPa Calm   6.0mph /  9.7km/h 29% 0.00in /  0mm 181.0 W/m2
14:33 84.2 °F /  29 °C 50.4 °F /  10.2 °C 29.74in /  1007hPa SE 2.0mph /  3.2km/h 2.0mph /  3.2km/h 31% 0.00in /  0mm 1102.0 W/m2
14:41 85.3 °F /  29.6 °C 47.5 °F /  8.6 °C 29.73in /  1006.7hPa Calm   3.0mph /  4.8km/h 27% 0.00in /  0mm 1081.0 W/m2
14:47 85.6 °F /  29.8 °C 48.7 °F /  9.3 °C 29.73in /  1006.7hPa NE 4.0mph /  6.4km/h 4.0mph /  6.4km/h 28% 0.00in /  0mm 269.0 W/m2
14:54 85.5 °F /  29.7 °C 48.6 °F /  9.2 °C 29.72in /  1006.3hPa ESE 0.9mph /  1.4km/h 5.0mph /  8km/h 28% 0.00in /  0mm 1023.0 W/m2
15:00 85.8 °F /  29.9 °C 48.0 °F /  8.9 °C 29.72in /  1006.3hPa East 2.0mph /  3.2km/h 5.0mph /  8km/h 27% 0.00in /  0mm 972.0 W/m2
15:06 86.2 °F /  30.1 °C 48.2 °F /  9 °C 29.72in /  1006.3hPa NNE 2.9mph /  4.7km/h 8.0mph /  12.9km/h 27% 0.00in /  0mm 970.0 W/m2
15:12 86.5 °F /  30.3 °C 48.6 °F /  9.2 °C 29.71in /  1006hPa East 0.9mph /  1.4km/h 4.0mph /  6.4km/h 27% 0.00in /  0mm 963.0 W/m2
15:18 87.4 °F /  30.8 °C 48.4 °F /  9.1 °C 29.71in /  1006hPa ENE 2.9mph /  4.7km/h 7.0mph /  11.3km/h 26% 0.00in /  0mm 951.0 W/m2
15:24 87.6 °F /  30.9 °C 47.5 °F /  8.6 °C 29.70in /  1005.6hPa ESE 0.9mph /  1.4km/h 4.0mph /  6.4km/h 25% 0.00in /  0mm 956.0 W/m2
15:30 88.0 °F /  31.1 °C 47.8 °F /  8.8 °C 29.70in /  1005.6hPa SSE 2.0mph /  3.2km/h 6.0mph /  9.7km/h 25% 0.00in /  0mm 898.0 W/m2
15:36 88.3 °F /  31.3 °C 48.0 °F /  8.9 °C 29.70in /  1005.6hPa SSW 2.9mph /  4.7km/h 4.0mph /  6.4km/h 25% 0.00in /  0mm 891.0 W/m2
15:38 88.3 °F /  31.3 °C 49.1 °F /  9.5 °C 29.70in /  1005.6hPa SE 2.0mph /  3.2km/h 5.0mph /  8km/h 26% 0.00in /  0mm 874.0 W/m2
15:45 88.3 °F /  31.3 °C 49.1 °F /  9.5 °C 29.70in /  1005.6hPa ESE 2.9mph /  4.7km/h 6.0mph /  9.7km/h 26% 0.00in /  0mm 838.0 W/m2
15:51 88.2 °F /  31.2 °C 46.8 °F /  8.2 °C 29.70in /  1005.6hPa NE 2.9mph /  4.7km/h 4.0mph /  6.4km/h 24% 0.00in /  0mm 824.0 W/m2
15:57 88.3 °F /  31.3 °C 46.9 °F /  8.3 °C 29.70in /  1005.6hPa NE 2.9mph /  4.7km/h 7.0mph /  11.3km/h 24% 0.00in /  0mm 798.0 W/m2
16:03 88.2 °F /  31.2 °C 47.8 °F /  8.8 °C 29.70in /  1005.6hPa ENE 2.0mph /  3.2km/h 2.0mph /  3.2km/h 25% 0.00in /  0mm 803.0 W/m2
16:09 88.2 °F /  31.2 °C 46.8 °F /  8.2 °C 29.69in /  1005.3hPa North 2.0mph /  3.2km/h 5.0mph /  8km/h 24% 0.00in /  0mm 779.0 W/m2
16:15 88.0 °F /  31.1 °C 47.8 °F /  8.8 °C 29.69in /  1005.3hPa NE 2.9mph /  4.7km/h 5.0mph /  8km/h 25% 0.00in /  0mm 780.0 W/m2
16:21 88.2 °F /  31.2 °C 47.8 °F /  8.8 °C 29.69in /  1005.3hPa East 4.0mph /  6.4km/h 6.0mph /  9.7km/h 25% 0.00in /  0mm 789.0 W/m2
16:28 88.2 °F /  31.2 °C 46.8 °F /  8.2 °C 29.69in /  1005.3hPa Calm   5.0mph /  8km/h 24% 0.00in /  0mm 192.0 W/m2
16:34 88.0 °F /  31.1 °C 46.6 °F /  8.1 °C 29.68in /  1005hPa Calm   2.0mph /  3.2km/h 24% 0.00in /  0mm 745.0 W/m2
16:40 88.2 °F /  31.2 °C 47.8 °F /  8.8 °C 29.68in /  1005hPa SW 0.9mph /  1.4km/h 3.0mph /  4.8km/h 25% 0.00in /  0mm 733.0 W/m2
16:46 88.0 °F /  31.1 °C 47.8 °F /  8.8 °C 29.68in /  1005hPa SW 4.9mph /  7.9km/h 8.0mph /  12.9km/h 25% 0.00in /  0mm 619.0 W/m2
16:52 87.6 °F /  30.9 °C 47.5 °F /  8.6 °C 29.67in /  1004.6hPa Calm   3.0mph /  4.8km/h 25% 0.00in /  0mm 640.0 W/m2
16:58 87.6 °F /  30.9 °C 47.5 °F /  8.6 °C 29.67in /  1004.6hPa West 2.9mph /  4.7km/h 7.0mph /  11.3km/h 25% 0.00in /  0mm 629.0 W/m2
17:04 87.1 °F /  30.6 °C 46.9 °F /  8.3 °C 29.67in /  1004.6hPa SW 2.0mph /  3.2km/h 6.0mph /  9.7km/h 25% 0.00in /  0mm 603.0 W/m2
17:11 86.7 °F /  30.4 °C 47.7 °F /  8.7 °C 29.67in /  1004.6hPa West 2.9mph /  4.7km/h 6.0mph /  9.7km/h 26% 0.00in /  0mm 536.0 W/m2
17:17 86.5 °F /  30.3 °C 47.7 °F /  8.7 °C 29.67in /  1004.6hPa WNW 0.9mph /  1.4km/h 5.0mph /  8km/h 26% 0.00in /  0mm 534.0 W/m2
17:23 86.9 °F /  30.5 °C 46.8 °F /  8.2 °C 29.67in /  1004.6hPa West 0.9mph /  1.4km/h 2.0mph /  3.2km/h 25% 0.00in /  0mm 533.0 W/m2
17:29 86.9 °F /  30.5 °C 46.8 °F /  8.2 °C 29.67in /  1004.6hPa Calm   7.0mph /  11.3km/h 25% 0.00in /  0mm 487.0 W/m2
17:35 87.3 °F /  30.7 °C 47.1 °F /  8.4 °C 29.67in /  1004.6hPa South 0.9mph /  1.4km/h 6.0mph /  9.7km/h 25% 0.00in /  0mm 464.0 W/m2
17:41 87.4 °F /  30.8 °C 45.1 °F /  7.3 °C 29.67in /  1004.6hPa WNW 0.9mph /  1.4km/h 2.0mph /  3.2km/h 23% 0.00in /  0mm 446.0 W/m2
17:47 87.6 °F /  30.9 °C 46.4 °F /  8 °C 29.67in /  1004.6hPa SW 0.9mph /  1.4km/h 4.0mph /  6.4km/h 24% 0.00in /  0mm 417.0 W/m2
17:53 87.1 °F /  30.6 °C 45.9 °F /  7.7 °C 29.67in /  1004.6hPa SSW 2.0mph /  3.2km/h 4.0mph /  6.4km/h 24% 0.00in /  0mm 264.0 W/m2
18:00 86.5 °F /  30.3 °C 44.4 °F /  6.9 °C 29.66in /  1004.3hPa South 2.0mph /  3.2km/h 3.0mph /  4.8km/h 23% 0.00in /  0mm 350.0 W/m2
18:06 86.5 °F /  30.3 °C 44.4 °F /  6.9 °C 29.66in /  1004.3hPa Calm   2.0mph /  3.2km/h 23% 0.00in /  0mm 250.0 W/m2
18:12 86.7 °F /  30.4 °C 44.4 °F /  6.9 °C 29.66in /  1004.3hPa Calm     23% 0.00in /  0mm 301.0 W/m2
18:18 87.3 °F /  30.7 °C 45.0 °F /  7.2 °C 29.66in /  1004.3hPa Calm   1.0mph /  1.6km/h 23% 0.00in /  0mm 265.0 W/m2
18:24 87.6 °F /  30.9 °C 44.1 °F /  6.7 °C 29.66in /  1004.3hPa NNW 0.9mph /  1.4km/h 2.0mph /  3.2km/h 22% 0.00in /  0mm 37.0 W/m2
18:30 87.6 °F /  30.9 °C 46.4 °F /  8 °C 29.66in /  1004.3hPa NNW 0.9mph /  1.4km/h 3.0mph /  4.8km/h 24% 0.00in /  0mm 211.0 W/m2
18:36 87.3 °F /  30.7 °C 43.7 °F /  6.5 °C 29.66in /  1004.3hPa NNE 0.9mph /  1.4km/h 2.0mph /  3.2km/h 22% 0.00in /  0mm 188.0 W/m2
18:43 87.1 °F /  30.6 °C 43.7 °F /  6.5 °C 29.66in /  1004.3hPa NNW 0.9mph /  1.4km/h 3.0mph /  4.8km/h 22% 0.00in /  0mm 162.0 W/m2
18:49 86.7 °F /  30.4 °C 44.4 °F /  6.9 °C 29.66in /  1004.3hPa Calm   2.0mph /  3.2km/h 23% 0.00in /  0mm 86.0 W/m2
18:55 86.7 °F /  30.4 °C 44.4 °F /  6.9 °C 29.66in /  1004.3hPa Calm     23% 0.00in /  0mm 56.0 W/m2
19:01 86.4 °F /  30.2 °C 45.3 °F /  7.4 °C 29.66in /  1004.3hPa Calm   1.0mph /  1.6km/h 24% 0.00in /  0mm 33.0 W/m2
19:07 86.2 °F /  30.1 °C 46.2 °F /  7.9 °C 29.66in /  1004.3hPa Calm     25% 0.00in /  0mm 28.0 W/m2
19:13 85.8 °F /  29.9 °C 44.8 °F /  7.1 °C 29.66in /  1004.3hPa Calm     24% 0.00in /  0mm 23.0 W/m2
19:19 85.5 °F /  29.7 °C 45.7 °F /  7.6 °C 29.66in /  1004.3hPa Calm   2.0mph /  3.2km/h 25% 0.00in /  0mm 21.0 W/m2
19:25 84.0 °F /  28.9 °C 47.5 °F /  8.6 °C 29.66in /  1004.3hPa SSW 0.9mph /  1.4km/h 2.0mph /  3.2km/h 28% 0.00in /  0mm 16.0 W/m2
19:31 83.1 °F /  28.4 °C 48.6 °F /  9.2 °C 29.66in /  1004.3hPa SSE 2.9mph /  4.7km/h 5.0mph /  8km/h 30% 0.00in /  0mm 12.0 W/m2
19:37 82.0 °F /  27.8 °C 48.4 °F /  9.1 °C 29.67in /  1004.6hPa SE 2.9mph /  4.7km/h 5.0mph /  8km/h 31% 0.00in /  0mm 5.0 W/m2
19:44 81.3 °F /  27.4 °C 48.6 °F /  9.2 °C 29.67in /  1004.6hPa SE 0.9mph /  1.4km/h 3.0mph /  4.8km/h 32% 0.00in /  0mm 0.0 W/m2
19:50 81.0 °F /  27.2 °C 48.4 °F /  9.1 °C 29.68in /  1005hPa WSW 2.9mph /  4.7km/h 3.0mph /  4.8km/h 32% 0.00in /  0mm 0.0 W/m2
19:56 80.4 °F /  26.9 °C 48.7 °F /  9.3 °C 29.68in /  1005hPa ENE 2.0mph /  3.2km/h 3.0mph /  4.8km/h 33% 0.00in /  0mm 0.0 W/m2
20:02 80.1 °F /  26.7 °C 48.4 °F /  9.1 °C 29.68in /  1005hPa Calm   2.0mph /  3.2km/h 33% 0.00in /  0mm 0.0 W/m2
20:08 79.9 °F /  26.6 °C 48.2 °F /  9 °C 29.69in /  1005.3hPa East 2.0mph /  3.2km/h 2.0mph /  3.2km/h 33% 0.00in /  0mm 0.0 W/m2
20:14 79.5 °F /  26.4 °C 47.1 °F /  8.4 °C 29.69in /  1005.3hPa Calm   3.0mph /  4.8km/h 32% 0.00in /  0mm 0.0 W/m2
20:20 79.5 °F /  26.4 °C 47.1 °F /  8.4 °C 29.70in /  1005.6hPa NE 2.9mph /  4.7km/h 5.0mph /  8km/h 32% 0.00in /  0mm 0.0 W/m2
20:26 79.2 °F /  26.2 °C 47.7 °F /  8.7 °C 29.70in /  1005.6hPa Calm   4.0mph /  6.4km/h 33% 0.00in /  0mm 0.0 W/m2
20:33 79.0 °F /  26.1 °C 48.2 °F /  9 °C 29.70in /  1005.6hPa NNE 2.9mph /  4.7km/h 3.0mph /  4.8km/h 34% 0.00in /  0mm 0.0 W/m2
20:39 78.6 °F /  25.9 °C 47.8 °F /  8.8 °C 29.70in /  1005.6hPa Calm   4.0mph /  6.4km/h 34% 0.00in /  0mm 0.0 W/m2
20:45 78.3 °F /  25.7 °C 47.7 °F /  8.7 °C 29.70in /  1005.6hPa NE 0.9mph /  1.4km/h 4.0mph /  6.4km/h 34% 0.00in /  0mm 0.0 W/m2
20:51 77.7 °F /  25.4 °C 48.6 °F /  9.2 °C 29.70in /  1005.6hPa East 0.9mph /  1.4km/h 4.0mph /  6.4km/h 36% 0.00in /  0mm 0.0 W/m2
20:57 77.4 °F /  25.2 °C 48.4 °F /  9.1 °C 29.70in /  1005.6hPa East 0.9mph /  1.4km/h 3.0mph /  4.8km/h 36% 0.00in /  0mm 0.0 W/m2
21:03 77.0 °F /  25 °C 48.7 °F /  9.3 °C 29.70in /  1005.6hPa Calm     37% 0.00in /  0mm 0.0 W/m2
21:09 76.6 °F /  24.8 °C 49.1 °F /  9.5 °C 29.70in /  1005.6hPa Calm   1.0mph /  1.6km/h 38% 0.00in /  0mm 0.0 W/m2
21:15 76.3 °F /  24.6 °C 48.7 °F /  9.3 °C 29.70in /  1005.6hPa Calm     38% 0.00in /  0mm 0.0 W/m2
21:22 75.7 °F /  24.3 °C 49.6 °F /  9.8 °C 29.70in /  1005.6hPa Calm     40% 0.00in /  0mm 0.0 W/m2
21:28 75.4 °F /  24.1 °C 50.0 °F /  10 °C 29.71in /  1006hPa Calm     41% 0.00in /  0mm 0.0 W/m2
21:34 75.0 °F /  23.9 °C 50.4 °F /  10.2 °C 29.71in /  1006hPa Calm     42% 0.00in /  0mm 0.0 W/m2
21:40 74.7 °F /  23.7 °C 51.3 °F /  10.7 °C 29.71in /  1006hPa Calm   1.0mph /  1.6km/h 44% 0.00in /  0mm 0.0 W/m2
21:46 74.1 °F /  23.4 °C 50.9 °F /  10.5 °C 29.72in /  1006.3hPa Calm   1.0mph /  1.6km/h 44% 0.00in /  0mm 0.0 W/m2
21:52 73.8 °F /  23.2 °C 50.5 °F /  10.3 °C 29.72in /  1006.3hPa Calm     44% 0.00in /  0mm 0.0 W/m2
21:58 73.4 °F /  23 °C 50.2 °F /  10.1 °C 29.72in /  1006.3hPa Calm     44% 0.00in /  0mm 0.0 W/m2
22:04 73.0 °F /  22.8 °C 49.3 °F /  9.6 °C 29.72in /  1006.3hPa Calm     43% 0.00in /  0mm 0.0 W/m2
22:10 72.9 °F /  22.7 °C 50.4 °F /  10.2 °C 29.72in /  1006.3hPa Calm     45% 0.00in /  0mm 0.0 W/m2
22:17 72.5 °F /  22.5 °C 50.5 °F /  10.3 °C 29.73in /  1006.7hPa NNW 0.9mph /  1.4km/h 2.0mph /  3.2km/h 46% 0.00in /  0mm 0.0 W/m2
22:23 72.1 °F /  22.3 °C 50.2 °F /  10.1 °C 29.73in /  1006.7hPa Calm   1.0mph /  1.6km/h 46% 0.00in /  0mm 0.0 W/m2
22:29 72.0 °F /  22.2 °C 50.0 °F /  10 °C 29.73in /  1006.7hPa Calm     46% 0.00in /  0mm 0.0 W/m2
22:35 71.8 °F /  22.1 °C 50.5 °F /  10.3 °C 29.73in /  1006.7hPa Calm     47% 0.00in /  0mm 0.0 W/m2
22:41 71.4 °F /  21.9 °C 50.7 °F /  10.4 °C 29.73in /  1006.7hPa Calm     48% 0.00in /  0mm 0.0 W/m2
22:48 71.2 °F /  21.8 °C 51.1 °F /  10.6 °C 29.73in /  1006.7hPa Calm     49% 0.00in /  0mm 0.0 W/m2
22:54 71.1 °F /  21.7 °C 52.0 °F /  11.1 °C 29.73in /  1006.7hPa Calm     51% 0.00in /  0mm 0.0 W/m2
23:00 70.7 °F /  21.5 °C 51.1 °F /  10.6 °C 29.73in /  1006.7hPa Calm   1.0mph /  1.6km/h 50% 0.00in /  0mm 0.0 W/m2
23:06 70.5 °F /  21.4 °C 53.1 °F /  11.7 °C 29.73in /  1006.7hPa Calm   1.0mph /  1.6km/h 54% 0.00in /  0mm 0.0 W/m2
23:12 70.3 °F /  21.3 °C 52.3 °F /  11.3 °C 29.73in /  1006.7hPa Calm     53% 0.00in /  0mm 0.0 W/m2
23:18 70.2 °F /  21.2 °C 51.8 °F /  11 °C 29.73in /  1006.7hPa Calm     52% 0.00in /  0mm 0.0 W/m2
23:24 70.0 °F /  21.1 °C 52.0 °F /  11.1 °C 29.73in /  1006.7hPa Calm     53% 0.00in /  0mm 0.0 W/m2
23:30 69.6 °F /  20.9 °C 51.8 °F /  11 °C 29.73in /  1006.7hPa Calm   1.0mph /  1.6km/h 53% 0.00in /  0mm 0.0 W/m2
23:36 69.4 °F /  20.8 °C 53.1 °F /  11.7 °C 29.72in /  1006.3hPa Calm   1.0mph /  1.6km/h 56% 0.00in /  0mm 0.0 W/m2
23:42 69.1 °F /  20.6 °C 53.2 °F /  11.8 °C 29.72in /  1006.3hPa Calm   1.0mph /  1.6km/h 57% 0.00in /  0mm 0.0 W/m2
23:49 68.7 °F /  20.4 °C 52.9 °F /  11.6 °C 29.72in /  1006.3hPa ESE 0.9mph /  1.4km/h 1.0mph /  1.6km/h 57% 0.00in /  0mm 0.0 W/m2
23:55 68.5 °F /  20.3 °C 53.2 °F /  11.8 °C 29.72in /  1006.3hPa Calm     58% 0.00in /  0mm 0.0 W/m2
Olympia, Windhoek, Namibia
Compliments of Weather Underground - 3 mb